Time;durP1;ratioP1;P1;durP2;ratioP2;P2;SDS_P1;SDS_P2;PMS_P1;PMS_P2;Temp;Humidity;BMP_temperature;BMP_pressure;BME280_temperature;BME280_humidity;BME280_pressure;Samples;Min_cycle;Max_cycle;Signal;HPM_P1;HPM_P2
2023/10/30 00:00:42;;;;;;;0.50;0.50;;;11.40;99.90;;;;;;5032087;28;20304;-82
2023/10/30 00:03:11;;;;;;;0.60;0.60;;;11.30;99.90;;;;;;5021626;28;20213;-81
2023/10/30 00:05:39;;;;;;;1.08;0.98;;;11.30;99.90;;;;;;5012022;28;20221;-81
2023/10/30 00:08:06;;;;;;;1.50;1.40;;;11.30;99.90;;;;;;5032187;28;20221;-81
2023/10/30 00:10:36;;;;;;;0.50;0.50;;;11.30;99.90;;;;;;5021883;28;20276;-82
2023/10/30 00:13:06;;;;;;;0.90;0.90;;;11.20;99.90;;;;;;5025809;28;20225;-84
2023/10/30 00:15:34;;;;;;;1.02;1.02;;;11.20;99.90;;;;;;5022972;28;20277;-81
2023/10/30 00:18:06;;;;;;;2.38;2.22;;;11.30;99.90;;;;;;5026693;28;20276;-82
2023/10/30 00:20:37;;;;;;;17.55;11.95;;;11.30;99.90;;;;;;5024211;28;20209;-83
2023/10/30 00:23:04;;;;;;;9.60;8.73;;;11.30;99.90;;;;;;5026156;28;20214;-80
2023/10/30 00:25:32;;;;;;;4.65;4.32;;;11.30;99.90;;;;;;5018441;28;20261;-81
2023/10/30 00:28:00;;;;;;;2.72;2.60;;;11.20;99.90;;;;;;5015328;28;20248;-79
2023/10/30 00:30:27;;;;;;;3.20;2.28;;;11.10;99.90;;;;;;5029299;28;20312;-80
2023/10/30 00:32:54;;;;;;;2.80;2.65;;;11.10;99.90;;;;;;5023079;28;20233;-81
2023/10/30 00:35:21;;;;;;;0.68;0.68;;;11.20;99.90;;;;;;5016894;28;20284;-80
2023/10/30 00:37:49;;;;;;;1.67;1.58;;;11.20;99.90;;;;;;5019031;28;20216;-79
2023/10/30 00:40:16;;;;;;;2.53;2.38;;;11.30;99.90;;;;;;5021309;28;20722;-80
2023/10/30 00:42:43;;;;;;;3.42;2.35;;;11.30;99.90;;;;;;5023320;28;20611;-79
2023/10/30 00:45:10;;;;;;;2.80;2.58;;;11.30;99.90;;;;;;5022569;28;20276;-81
2023/10/30 00:47:38;;;;;;;3.92;3.63;;;11.30;99.90;;;;;;5026643;28;20213;-81
2023/10/30 00:50:07;;;;;;;4.70;4.30;;;11.30;99.90;;;;;;5022177;28;20271;-81
2023/10/30 00:52:34;;;;;;;2.53;2.35;;;11.30;99.90;;;;;;5014667;28;20239;-81
2023/10/30 00:55:03;;;;;;;2.03;1.92;;;11.30;99.90;;;;;;5017562;28;20309;-81
2023/10/30 00:57:30;;;;;;;2.72;2.63;;;11.40;99.90;;;;;;5031358;28;20284;-81
2023/10/30 00:59:57;;;;;;;1.92;1.83;;;11.50;99.90;;;;;;5030882;28;20235;-81
2023/10/30 01:02:24;;;;;;;4.97;4.53;;;11.50;99.90;;;;;;5028337;28;20288;-79
2023/10/30 01:04:51;;;;;;;3.60;3.10;;;11.40;99.90;;;;;;5024905;28;20209;-80
2023/10/30 01:07:18;;;;;;;1.60;0.88;;;11.50;99.90;;;;;;5029913;28;20474;-80
2023/10/30 01:09:45;;;;;;;1.33;1.23;;;11.50;99.90;;;;;;5016503;28;20209;-81
2023/10/30 01:12:12;;;;;;;1.77;1.67;;;11.50;99.90;;;;;;5017935;28;20285;-80
2023/10/30 01:14:40;;;;;;;2.92;1.70;;;11.60;99.90;;;;;;5023917;28;20228;-82
2023/10/30 01:17:07;;;;;;;1.30;0.95;;;11.60;99.90;;;;;;5025732;28;20284;-80
2023/10/30 01:19:36;;;;;;;2.60;1.85;;;11.70;99.90;;;;;;5021089;28;20205;-80
2023/10/30 01:22:04;;;;;;;4.40;2.78;;;11.80;99.90;;;;;;5016846;28;20213;-81
2023/10/30 01:24:31;;;;;;;4.22;2.35;;;11.80;99.90;;;;;;5029196;28;20324;-80
2023/10/30 01:26:58;;;;;;;1.52;1.52;;;11.80;99.90;;;;;;5017179;28;20209;-80
2023/10/30 01:29:25;;;;;;;0.50;0.50;;;11.80;99.90;;;;;;5027702;28;20523;-84
2023/10/30 01:31:53;;;;;;;3.53;3.22;;;11.80;99.90;;;;;;5036293;28;20672;-80
2023/10/30 01:34:22;;;;;;;0.40;0.40;;;11.80;99.90;;;;;;5027599;28;20299;-81
2023/10/30 01:36:49;;;;;;;2.35;2.22;;;11.80;99.90;;;;;;5025028;28;20316;-80
2023/10/30 01:39:18;;;;;;;1.27;1.17;;;11.90;99.90;;;;;;5016319;28;20274;-81
2023/10/30 01:41:46;;;;;;;1.30;1.30;;;11.80;99.90;;;;;;5026648;28;20256;-81
2023/10/30 01:44:12;;;;;;;0.50;0.50;;;11.80;99.90;;;;;;5026876;28;20220;-81
2023/10/30 01:46:39;;;;;;;4.50;3.92;;;11.80;99.90;;;;;;5032394;28;20300;-81
2023/10/30 01:49:06;;;;;;;2.92;2.45;;;11.80;99.90;;;;;;5038953;28;20188;-80
2023/10/30 01:51:38;;;;;;;49.03;3.45;;;11.80;99.90;;;;;;5037483;28;20205;-82
2023/10/30 01:54:06;;;;;;;1.20;1.20;;;11.80;99.90;;;;;;5033656;28;20231;-83
2023/10/30 01:56:33;;;;;;;2.63;2.53;;;11.80;99.90;;;;;;5035541;28;20428;-83
2023/10/30 01:59:00;;;;;;;4.22;3.85;;;12.00;99.90;;;;;;5028487;28;20243;-82
2023/10/30 02:01:29;;;;;;;0.80;0.80;;;11.80;99.90;;;;;;5028321;28;20459;-82
2023/10/30 02:03:58;;;;;;;4.63;3.28;;;11.90;99.90;;;;;;5033469;28;20280;-81
2023/10/30 02:06:25;;;;;;;2.40;2.20;;;12.00;99.90;;;;;;5041576;28;20216;-80
2023/10/30 02:08:53;;;;;;;1.80;1.73;;;12.10;99.90;;;;;;5025839;28;20243;-80
2023/10/30 02:11:20;;;;;;;1.73;1.63;;;12.00;99.90;;;;;;5015340;28;20206;-84
2023/10/30 02:13:54;;;;;;;1.55;1.45;;;11.90;99.90;;;;;;5025786;28;20305;-81
2023/10/30 02:16:23;;;;;;;0.95;0.95;;;11.90;99.90;;;;;;5016182;28;20201;-82
2023/10/30 02:18:51;;;;;;;0.65;0.65;;;11.80;99.90;;;;;;5042359;28;20211;-82
2023/10/30 02:21:20;;;;;;;1.10;1.00;;;11.80;99.90;;;;;;5024629;28;20197;-81
2023/10/30 02:23:49;;;;;;;4.22;2.28;;;11.80;99.90;;;;;;5027981;28;20204;-82
2023/10/30 02:26:16;;;;;;;1.50;1.40;;;11.80;99.90;;;;;;5024774;28;20204;-82
2023/10/30 02:28:44;;;;;;;1.25;1.25;;;11.70;99.90;;;;;;5012118;28;20507;-81
2023/10/30 02:31:11;;;;;;;4.10;2.17;;;11.70;99.90;;;;;;5021385;28;20272;-81
2023/10/30 02:33:38;;;;;;;1.00;1.00;;;11.70;99.90;;;;;;5028615;28;21960;-81
2023/10/30 02:36:06;;;;;;;1.83;1.70;;;11.60;99.90;;;;;;5027220;28;20205;-81
2023/10/30 02:38:33;;;;;;;0.55;0.55;;;11.50;99.90;;;;;;5016035;28;20220;-82
2023/10/30 02:41:08;;;;;;;3.25;3.03;;;11.60;99.90;;;;;;5030663;28;20189;-81
2023/10/30 02:43:35;;;;;;;0.65;0.65;;;11.70;99.90;;;;;;5027506;28;20410;-82
2023/10/30 02:46:04;;;;;;;0.90;0.90;;;11.60;99.90;;;;;;5017038;28;20483;-81
2023/10/30 02:48:32;;;;;;;0.63;0.63;;;11.50;99.90;;;;;;5028497;28;20216;-82
2023/10/30 02:50:59;;;;;;;3.33;3.03;;;11.50;99.90;;;;;;5027413;28;20205;-81
2023/10/30 02:53:27;;;;;;;0.75;0.75;;;11.50;99.90;;;;;;5029056;28;20239;-79
2023/10/30 02:55:54;;;;;;;0.60;0.60;;;11.50;99.90;;;;;;5025349;28;20211;-81
2023/10/30 02:58:21;;;;;;;0.82;0.82;;;11.50;99.90;;;;;;5023913;28;20236;-79
2023/10/30 03:00:48;;;;;;;1.45;1.35;;;11.50;99.90;;;;;;5017827;28;20276;-81
2023/10/30 03:03:16;;;;;;;0.50;0.50;;;11.50;99.90;;;;;;5026800;28;20232;-80
2023/10/30 03:05:43;;;;;;;0.40;0.40;;;11.40;99.90;;;;;;5028008;28;20193;-80
2023/10/30 03:08:10;;;;;;;1.10;1.10;;;11.50;99.90;;;;;;5008561;28;20202;-80
2023/10/30 03:10:37;;;;;;;2.35;2.08;;;11.70;99.90;;;;;;5013739;28;20216;-80
2023/10/30 03:13:04;;;;;;;2.17;1.25;;;11.70;99.90;;;;;;5031535;28;20323;-80
2023/10/30 03:15:36;;;;;;;0.70;0.70;;;11.40;99.90;;;;;;5016119;28;20299;-82
2023/10/30 03:18:03;;;;;;;0.50;0.50;;;11.30;99.90;;;;;;5023190;28;20205;-80
2023/10/30 03:20:31;;;;;;;0.85;0.85;;;11.50;99.90;;;;;;5021572;28;20446;-80
2023/10/30 03:23:00;;;;;;;1.23;1.23;;;11.30;99.90;;;;;;5018759;28;20429;-81
2023/10/30 03:25:28;;;;;;;1.35;1.30;;;11.20;99.90;;;;;;5021798;28;20308;-82
2023/10/30 03:27:55;;;;;;;0.52;0.52;;;11.30;99.90;;;;;;5023622;28;20236;-81
2023/10/30 03:30:22;;;;;;;1.55;1.45;;;11.40;99.90;;;;;;5034084;28;20276;-81
2023/10/30 03:32:49;;;;;;;0.60;0.60;;;11.60;99.90;;;;;;5026498;28;20228;-80
2023/10/30 03:35:16;;;;;;;5.10;1.02;;;11.50;99.90;;;;;;5030134;28;20240;-81
2023/10/30 03:37:43;;;;;;;3.85;1.75;;;11.60;99.90;;;;;;5018573;28;20276;-79
2023/10/30 03:40:12;;;;;;;0.55;0.55;;;11.50;99.90;;;;;;5019418;28;20284;-80
2023/10/30 03:42:39;;;;;;;0.50;0.50;;;11.60;99.90;;;;;;5021222;28;20248;-83
2023/10/30 03:45:07;;;;;;;1.13;1.02;;;11.60;99.90;;;;;;5024067;28;20208;-81
2023/10/30 03:47:36;;;;;;;0.50;0.50;;;11.50;99.90;;;;;;5033666;28;20252;-81
2023/10/30 03:50:03;;;;;;;0.40;0.40;;;11.30;99.90;;;;;;5030618;28;20270;-82
2023/10/30 03:52:30;;;;;;;0.90;0.88;;;11.20;99.90;;;;;;5019737;28;20205;-81
2023/10/30 03:55:03;;;;;;;0.60;0.60;;;11.10;99.90;;;;;;5020539;28;20292;-80
2023/10/30 03:57:30;;;;;;;1.17;1.15;;;11.30;99.90;;;;;;5032191;28;20219;-80
2023/10/30 03:59:57;;;;;;;1.55;1.45;;;11.40;99.90;;;;;;5020056;28;20300;-80
2023/10/30 04:02:24;;;;;;;0.75;0.75;;;11.20;99.90;;;;;;5017799;28;20237;-81
2023/10/30 04:04:51;;;;;;;0.80;0.80;;;11.20;99.90;;;;;;5029681;28;20239;-81
2023/10/30 04:07:19;;;;;;;1.15;1.15;;;11.00;99.90;;;;;;5018258;28;20553;-80
2023/10/30 04:09:48;;;;;;;0.65;0.65;;;11.10;99.90;;;;;;5028159;28;20197;-80
2023/10/30 04:12:19;;;;;;;0.50;0.50;;;11.00;99.90;;;;;;5012705;28;20225;-79
2023/10/30 04:14:47;;;;;;;0.40;0.40;;;10.90;99.90;;;;;;5025468;28;20226;-79
2023/10/30 04:17:14;;;;;;;1.42;1.35;;;10.70;99.90;;;;;;5014309;28;20211;-80
2023/10/30 04:19:41;;;;;;;0.73;0.73;;;10.70;99.90;;;;;;5022002;28;20278;-79
2023/10/30 04:22:08;;;;;;;0.60;0.60;;;10.70;99.90;;;;;;5027612;28;20524;-80
2023/10/30 04:24:37;;;;;;;0.90;0.88;;;10.90;99.90;;;;;;5017758;28;20494;-78
2023/10/30 04:27:05;;;;;;;0.80;0.80;;;11.10;99.90;;;;;;5018775;28;20206;-80
2023/10/30 04:29:32;;;;;;;0.50;0.50;;;10.90;99.90;;;;;;5025442;28;20205;-79
2023/10/30 04:31:59;;;;;;;0.50;0.50;;;10.80;99.90;;;;;;5017163;28;20301;-80
2023/10/30 04:34:27;;;;;;;0.50;0.50;;;10.80;99.90;;;;;;5021142;28;20241;-80
2023/10/30 04:36:54;;;;;;;7.30;3.05;;;10.80;99.90;;;;;;5032903;28;20252;-80
2023/10/30 04:39:22;;;;;;;0.50;0.50;;;10.90;99.90;;;;;;5014849;28;20225;-79
2023/10/30 04:41:49;;;;;;;0.40;0.40;;;10.80;99.90;;;;;;5025478;28;20206;-81
2023/10/30 04:44:16;;;;;;;2.63;1.35;;;10.80;99.90;;;;;;5017674;28;20280;-79
2023/10/30 04:46:43;;;;;;;2.08;1.98;;;11.00;99.90;;;;;;5024952;28;20209;-79
2023/10/30 04:49:10;;;;;;;0.60;0.60;;;10.90;99.90;;;;;;5018903;28;20211;-80
2023/10/30 04:51:38;;;;;;;1.23;1.13;;;10.90;99.90;;;;;;5023247;28;20209;-79
2023/10/30 04:54:06;;;;;;;0.63;0.63;;;10.90;99.90;;;;;;5016941;28;20252;-78
2023/10/30 04:56:33;;;;;;;0.40;0.40;;;10.80;99.90;;;;;;5025661;28;20276;-78
2023/10/30 04:59:00;;;;;;;0.70;0.70;;;10.80;99.90;;;;;;5016558;28;20516;-78
2023/10/30 05:01:27;;;;;;;0.75;0.75;;;10.70;99.90;;;;;;5016465;28;20252;-81
2023/10/30 05:03:54;;;;;;;0.93;0.80;;;10.60;99.90;;;;;;5026358;28;20423;-81
2023/10/30 05:06:22;;;;;;;0.65;0.65;;;10.80;99.90;;;;;;5012806;28;20210;-81
2023/10/30 05:08:50;;;;;;;0.70;0.70;;;10.90;99.90;;;;;;5023733;28;20236;-81
2023/10/30 05:11:19;;;;;;;0.40;0.40;;;10.80;99.90;;;;;;5030859;28;20252;-80
2023/10/30 05:13:48;;;;;;;2.40;2.30;;;10.60;99.90;;;;;;5023630;28;20209;-81
2023/10/30 05:16:15;;;;;;;0.93;0.82;;;10.70;99.90;;;;;;5014554;28;20201;-79
2023/10/30 05:18:44;;;;;;;0.70;0.70;;;10.90;99.90;;;;;;5023264;28;20259;-79
2023/10/30 05:21:12;;;;;;;4.50;4.13;;;10.90;99.90;;;;;;5021597;28;20272;-81
2023/10/30 05:23:41;;;;;;;2.58;2.47;;;10.80;99.90;;;;;;5030025;28;20209;-81
2023/10/30 05:26:09;;;;;;;0.77;0.77;;;10.80;99.90;;;;;;5030516;28;20201;-80
2023/10/30 05:28:38;;;;;;;0.85;0.85;;;10.50;99.90;;;;;;5026959;28;20201;-80
2023/10/30 05:31:07;;;;;;;0.40;0.40;;;10.30;99.90;;;;;;5035744;28;20201;-79
2023/10/30 05:33:43;;;;;;;1.35;1.25;;;10.30;99.90;;;;;;5031219;28;20212;-78
2023/10/30 05:36:10;;;;;;;0.60;0.60;;;10.20;99.90;;;;;;5027504;28;20218;-77
2023/10/30 05:38:37;;;;;;;0.60;0.60;;;10.20;99.90;;;;;;5016204;28;20206;-79
2023/10/30 05:41:05;;;;;;;2.05;1.95;;;10.20;99.90;;;;;;5030642;28;20209;-79
2023/10/30 05:43:32;;;;;;;0.60;0.60;;;10.20;99.90;;;;;;5032250;28;20296;-80
2023/10/30 05:45:59;;;;;;;5.28;1.40;;;10.20;99.90;;;;;;5018804;28;20210;-79
2023/10/30 05:48:26;;;;;;;1.67;1.58;;;10.30;99.90;;;;;;5018984;28;20584;-80
2023/10/30 05:50:53;;;;;;;0.60;0.60;;;10.30;99.90;;;;;;5021419;28;20291;-80
2023/10/30 05:53:20;;;;;;;1.00;1.00;;;10.40;99.90;;;;;;5022917;28;20205;-81
2023/10/30 05:55:47;;;;;;;0.70;0.70;;;10.40;99.90;;;;;;5022494;28;20221;-79
2023/10/30 05:58:14;;;;;;;1.30;1.20;;;10.60;99.90;;;;;;5037007;28;20418;-82
2023/10/30 06:00:43;;;;;;;1.33;1.27;;;10.70;99.90;;;;;;5031554;28;20372;-81
2023/10/30 06:03:10;;;;;;;0.60;0.60;;;10.70;99.90;;;;;;5026295;28;20436;-81
2023/10/30 06:05:38;;;;;;;0.80;0.80;;;10.70;99.90;;;;;;5030122;28;20490;-80
2023/10/30 06:08:05;;;;;;;1.85;1.58;;;10.80;99.90;;;;;;5014988;28;20817;-81
2023/10/30 06:10:32;;;;;;;1.23;1.23;;;10.80;99.90;;;;;;5029887;28;20273;-81
2023/10/30 06:13:01;;;;;;;0.88;0.88;;;10.80;99.90;;;;;;5025749;28;20231;-79
2023/10/30 06:15:28;;;;;;;1.20;1.10;;;10.80;99.90;;;;;;5024530;28;20232;-79
2023/10/30 06:17:56;;;;;;;0.50;0.50;;;10.90;99.90;;;;;;5033447;28;20205;-79
2023/10/30 06:20:25;;;;;;;1.15;1.15;;;10.90;99.90;;;;;;5018737;28;20220;-81
2023/10/30 06:22:52;;;;;;;0.50;0.50;;;11.00;99.90;;;;;;5023940;28;20212;-79
2023/10/30 06:25:19;;;;;;;2.97;2.25;;;11.10;99.90;;;;;;5028624;28;20276;-79
2023/10/30 06:27:46;;;;;;;0.40;0.40;;;11.20;99.90;;;;;;5036516;28;20405;-79
2023/10/30 06:30:14;;;;;;;2.50;2.40;;;11.20;99.90;;;;;;5023908;28;20206;-80
2023/10/30 06:32:42;;;;;;;1.98;1.88;;;11.20;99.90;;;;;;5038644;28;20194;-80
2023/10/30 06:35:09;;;;;;;0.60;0.60;;;11.30;99.90;;;;;;5042206;28;20208;-80
2023/10/30 06:37:36;;;;;;;0.60;0.60;;;11.30;99.90;;;;;;5033036;28;20201;-80
2023/10/30 06:40:04;;;;;;;0.50;0.50;;;11.40;99.90;;;;;;5023678;28;20204;-79
2023/10/30 06:42:31;;;;;;;0.55;0.55;;;11.50;99.90;;;;;;5027702;28;20221;-80
2023/10/30 06:44:58;;;;;;;1.23;0.95;;;11.70;99.90;;;;;;5034341;28;20206;-82
2023/10/30 06:47:27;;;;;;;0.50;0.50;;;11.70;99.90;;;;;;5039771;28;20309;-79
2023/10/30 06:49:54;;;;;;;0.40;0.40;;;11.90;99.90;;;;;;5022787;28;20213;-79
2023/10/30 06:52:21;;;;;;;0.65;0.65;;;12.10;99.90;;;;;;5021942;28;20204;-78
2023/10/30 06:54:48;;;;;;;0.40;0.40;;;12.20;99.90;;;;;;5030586;28;20311;-79
2023/10/30 06:57:15;;;;;;;0.63;0.63;;;12.40;99.90;;;;;;5034515;28;20232;-80
2023/10/30 06:59:43;;;;;;;0.63;0.63;;;12.70;99.90;;;;;;5027416;28;20213;-79
2023/10/30 07:02:10;;;;;;;2.28;2.17;;;12.90;99.90;;;;;;5034856;28;20227;-80
2023/10/30 07:04:39;;;;;;;0.93;0.93;;;13.10;99.90;;;;;;5052295;28;20257;-80
2023/10/30 07:07:08;;;;;;;0.60;0.60;;;13.10;99.90;;;;;;5041167;28;20217;-80
2023/10/30 07:09:35;;;;;;;1.43;1.37;;;13.20;99.90;;;;;;5021069;28;20214;-79
2023/10/30 07:12:03;;;;;;;1.37;1.27;;;13.20;99.90;;;;;;5025575;28;20437;-81
2023/10/30 07:14:30;;;;;;;0.90;0.90;;;13.30;99.90;;;;;;5015172;28;20474;-79
2023/10/30 07:16:57;;;;;;;0.60;0.60;;;13.30;99.90;;;;;;5033113;28;20470;-78
2023/10/30 07:19:30;;;;;;;0.50;0.50;;;13.40;99.90;;;;;;5028300;28;20454;-79
2023/10/30 07:21:58;;;;;;;7.97;7.33;;;13.40;99.90;;;;;;5022740;28;20474;-80
2023/10/30 07:24:25;;;;;;;2.40;2.30;;;13.40;99.90;;;;;;5027809;28;20501;-80
2023/10/30 07:26:52;;;;;;;6.20;5.67;;;13.50;99.90;;;;;;5030725;28;20435;-80
2023/10/30 07:29:19;;;;;;;6.00;5.70;;;13.60;99.90;;;;;;5023505;28;20454;-79
2023/10/30 07:31:46;;;;;;;4.47;4.27;;;13.60;99.90;;;;;;5021864;28;20473;-84
2023/10/30 07:34:13;;;;;;;5.30;4.90;;;13.60;99.90;;;;;;5032514;28;20454;-81
2023/10/30 07:36:41;;;;;;;1.83;1.73;;;13.60;99.90;;;;;;5027339;28;20465;-79
2023/10/30 07:39:08;;;;;;;3.93;3.53;;;13.70;99.90;;;;;;5030225;28;20413;-80
2023/10/30 07:41:37;;;;;;;0.70;0.70;;;13.70;99.90;;;;;;5023043;28;20445;-79
2023/10/30 07:44:07;;;;;;;1.27;1.27;;;13.70;99.90;;;;;;5019704;28;20414;-78
2023/10/30 07:46:35;;;;;;;2.80;2.63;;;13.70;99.90;;;;;;5034656;28;20456;-78
2023/10/30 07:49:04;;;;;;;2.73;2.63;;;13.70;99.90;;;;;;5022081;28;20435;-78
2023/10/30 07:51:31;;;;;;;0.70;0.70;;;13.50;99.90;;;;;;5027751;28;20643;-83
2023/10/30 07:53:59;;;;;;;0.60;0.60;;;13.50;99.90;;;;;;5019818;28;20439;-79
2023/10/30 07:56:25;;;;;;;1.30;1.23;;;13.60;99.90;;;;;;5021841;28;20525;-78
2023/10/30 07:58:53;;;;;;;0.87;0.87;;;13.70;99.90;;;;;;5027396;28;20466;-79
2023/10/30 08:01:20;;;;;;;0.60;0.60;;;13.70;99.90;;;;;;5014770;28;20579;-78
2023/10/30 08:03:47;;;;;;;1.57;1.47;;;13.70;99.90;;;;;;5022417;28;20418;-79
2023/10/30 08:06:14;;;;;;;0.60;0.60;;;13.90;99.90;;;;;;5027871;28;20441;-79
2023/10/30 08:08:41;;;;;;;0.93;0.93;;;13.90;99.90;;;;;;5029528;28;20432;-81
2023/10/30 08:11:09;;;;;;;2.93;2.70;;;13.90;99.90;;;;;;5030854;28;20438;-84
2023/10/30 08:13:37;;;;;;;0.50;0.50;;;14.00;99.90;;;;;;5028295;28;20716;-78
2023/10/30 08:16:05;;;;;;;0.60;0.60;;;14.00;99.90;;;;;;5027746;28;20446;-78
2023/10/30 08:18:32;;;;;;;0.60;0.60;;;14.10;99.90;;;;;;5021096;28;20435;-79
2023/10/30 08:20:59;;;;;;;0.67;0.67;;;14.20;99.90;;;;;;5029746;28;20439;-78
2023/10/30 08:23:36;;;;;;;0.57;0.57;;;14.40;99.90;;;;;;5025690;28;20484;-79
2023/10/30 08:26:07;;;;;;;1.23;1.23;;;14.50;99.90;;;;;;5029738;28;20441;-79
2023/10/30 08:28:35;;;;;;;1.07;1.07;;;14.50;99.90;;;;;;5028561;28;20414;-80
2023/10/30 08:31:04;;;;;;;0.70;0.70;;;14.60;99.90;;;;;;5012899;28;20448;-79
2023/10/30 08:33:31;;;;;;;0.60;0.60;;;14.60;99.90;;;;;;5027237;28;20428;-79
2023/10/30 08:35:58;;;;;;;0.60;0.60;;;14.70;99.90;;;;;;5025856;28;20490;-80
2023/10/30 08:38:25;;;;;;;0.90;0.90;;;14.90;99.90;;;;;;5028025;28;20445;-79
2023/10/30 08:40:52;;;;;;;0.60;0.60;;;15.10;99.90;;;;;;5029558;28;20405;-79
2023/10/30 08:43:19;;;;;;;0.80;0.80;;;15.40;99.90;;;;;;5019443;28;20519;-79
2023/10/30 08:45:46;;;;;;;0.70;0.70;;;15.50;99.90;;;;;;5030930;28;20517;-80
2023/10/30 08:48:13;;;;;;;0.60;0.60;;;15.60;99.90;;;;;;5037272;28;20424;-79
2023/10/30 08:50:45;;;;;;;1.80;1.70;;;15.60;99.90;;;;;;5030175;28;20469;-80
2023/10/30 08:53:13;;;;;;;1.57;1.47;;;15.80;99.90;;;;;;5028912;28;20478;-80
2023/10/30 08:55:41;;;;;;;1.27;1.27;;;15.80;99.90;;;;;;5027138;28;20450;-80
2023/10/30 08:58:08;;;;;;;1.80;1.20;;;15.90;99.90;;;;;;5039260;28;20425;-79
2023/10/30 09:00:36;;;;;;;0.97;0.97;;;16.00;99.90;;;;;;5040019;28;20428;-80
2023/10/30 09:03:03;;;;;;;2.10;1.17;;;16.20;99.90;;;;;;5036560;28;20435;-84
2023/10/30 09:05:30;;;;;;;0.60;0.60;;;16.20;99.90;;;;;;5031528;28;20417;-83
2023/10/30 09:07:58;;;;;;;0.60;0.60;;;16.10;99.90;;;;;;5029096;28;20471;-80
2023/10/30 09:10:28;;;;;;;1.77;1.67;;;16.20;99.90;;;;;;5035958;28;20607;-79
2023/10/30 09:12:56;;;;;;;0.80;0.80;;;16.20;99.90;;;;;;5035769;28;20492;-80
2023/10/30 09:15:23;;;;;;;1.23;1.23;;;16.30;99.90;;;;;;5029666;28;20449;-88
2023/10/30 09:17:50;;;;;;;0.70;0.70;;;16.20;99.90;;;;;;5027029;28;20696;-80
2023/10/30 09:20:17;;;;;;;0.80;0.80;;;16.40;99.90;;;;;;5026482;28;20417;-81
2023/10/30 09:22:44;;;;;;;1.33;1.23;;;16.60;99.90;;;;;;5031847;28;20412;-81
2023/10/30 09:25:11;;;;;;;1.30;1.30;;;16.70;99.90;;;;;;5026026;28;20924;-81
2023/10/30 09:27:38;;;;;;;0.60;0.60;;;16.70;99.90;;;;;;5030648;28;20450;-80
2023/10/30 09:30:06;;;;;;;1.33;1.20;;;16.80;99.90;;;;;;5041061;28;20508;-82
2023/10/30 09:32:33;;;;;;;0.60;0.60;;;16.80;99.90;;;;;;5023966;28;20441;-81
2023/10/30 09:35:01;;;;;;;0.90;0.90;;;17.00;99.90;;;;;;5033495;28;20451;-82
2023/10/30 09:37:28;;;;;;;1.10;1.10;;;16.90;99.90;;;;;;5041536;28;20498;-81
2023/10/30 09:39:55;;;;;;;0.60;0.60;;;17.10;99.90;;;;;;5025153;28;20603;-83
2023/10/30 09:42:22;;;;;;;0.60;0.60;;;17.10;99.90;;;;;;5033325;28;20435;-82
2023/10/30 09:44:50;;;;;;;1.07;1.07;;;16.90;99.90;;;;;;5032021;28;20480;-82
2023/10/30 09:47:19;;;;;;;1.00;1.00;;;17.00;99.90;;;;;;5034034;28;20413;-83
2023/10/30 09:49:48;;;;;;;1.37;1.10;;;17.10;99.90;;;;;;5025217;28;20432;-83
2023/10/30 09:52:18;;;;;;;0.93;0.90;;;17.20;99.90;;;;;;5040826;28;20736;-79
2023/10/30 09:54:48;;;;;;;2.27;1.90;;;17.30;99.90;;;;;;5031805;28;20514;-84
2023/10/30 09:57:16;;;;;;;0.70;0.70;;;17.20;99.90;;;;;;5032445;28;20493;-84
2023/10/30 09:59:43;;;;;;;0.97;0.97;;;17.20;99.90;;;;;;5025732;28;20617;-82
2023/10/30 10:02:10;;;;;;;0.87;0.87;;;17.20;99.90;;;;;;5014948;28;20911;-83
2023/10/30 10:04:38;;;;;;;0.57;0.57;;;17.30;99.90;;;;;;5026429;28;20425;-83
2023/10/30 10:07:05;;;;;;;0.70;0.70;;;17.40;99.90;;;;;;5018046;28;20471;-81
2023/10/30 10:09:32;;;;;;;0.70;0.70;;;17.40;99.90;;;;;;5027134;28;20819;-81
2023/10/30 10:11:59;;;;;;;1.77;1.67;;;17.40;99.90;;;;;;5025105;28;20675;-81
2023/10/30 10:14:30;;;;;;;0.77;0.77;;;17.60;99.90;;;;;;5021250;28;20880;-87
2023/10/30 10:16:58;;;;;;;0.60;0.60;;;17.50;99.90;;;;;;5024217;28;20562;-84
2023/10/30 10:19:27;;;;;;;0.60;0.60;;;17.50;99.90;;;;;;5023645;28;20475;-82
2023/10/30 10:21:54;;;;;;;1.33;1.33;;;17.50;99.90;;;;;;5028841;28;20442;-83
2023/10/30 10:24:32;;;;;;;0.70;0.70;;;17.60;99.90;;;;;;5030701;28;20442;-84
2023/10/30 10:27:04;;;;;;;1.43;1.33;;;17.40;99.90;;;;;;5028527;28;20580;-82
2023/10/30 10:29:33;;;;;;;0.70;0.70;;;17.40;99.90;;;;;;5016535;28;20410;-85
2023/10/30 10:32:00;;;;;;;1.37;1.33;;;17.60;99.90;;;;;;5014831;28;20726;-85
2023/10/30 10:34:33;;;;;;;0.70;0.70;;;17.70;99.90;;;;;;5036879;28;20983;-82
2023/10/30 10:37:01;;;;;;;0.80;0.80;;;17.60;99.90;;;;;;5034410;28;20508;-83
2023/10/30 10:39:47;;;;;;;0.70;0.70;;;17.70;99.90;;;;;;5031925;28;20469;-82
2023/10/30 10:42:26;;;;;;;0.70;0.70;;;17.80;99.90;;;;;;5029229;28;20756;-83
2023/10/30 10:44:55;;;;;;;0.70;0.70;;;18.00;99.90;;;;;;5030316;28;20431;-81
2023/10/30 10:47:23;;;;;;;1.00;1.00;;;17.90;99.90;;;;;;5025326;28;20421;-84
2023/10/30 10:49:50;;;;;;;0.80;0.80;;;17.80;99.90;;;;;;5025396;28;20747;-87
2023/10/30 10:52:19;;;;;;;0.73;0.73;;;17.90;99.90;;;;;;5024814;28;20474;-84
2023/10/30 10:55:02;;;;;;;0.73;0.73;;;17.70;99.90;;;;;;5012721;28;20659;-84
2023/10/30 10:57:41;;;;;;;0.60;0.60;;;17.80;99.90;;;;;;5019901;28;20448;-82
2023/10/30 11:00:13;;;;;;;0.90;0.90;;;17.80;99.90;;;;;;5038686;28;20421;-83
2023/10/30 11:02:41;;;;;;;0.70;0.70;;;17.80;99.90;;;;;;5037701;28;20428;-83
2023/10/30 11:05:08;;;;;;;1.07;1.07;;;17.80;99.90;;;;;;5034176;28;20426;-82
2023/10/30 11:07:49;;;;;;;0.70;0.70;;;17.90;99.90;;;;;;5023015;28;20422;-84
2023/10/30 11:10:25;;;;;;;0.60;0.60;;;17.90;99.90;;;;;;5030192;28;20658;-83
2023/10/30 11:13:08;;;;;;;0.70;0.70;;;17.90;99.90;;;;;;5027291;28;20413;-83
2023/10/30 11:15:40;;;;;;;1.00;1.00;;;17.90;99.90;;;;;;5021477;28;20470;-83
2023/10/30 11:18:21;;;;;;;0.80;0.80;;;18.00;99.90;;;;;;5024636;28;20787;-82
2023/10/30 11:21:05;;;;;;;0.60;0.60;;;18.10;99.90;;;;;;5031498;28;20405;-81
2023/10/30 11:23:46;;;;;;;1.00;1.00;;;18.10;99.90;;;;;;5012495;28;20490;-81
2023/10/30 11:26:43;;;;;;;0.70;0.70;;;18.10;99.90;;;;;;5022510;28;20568;-83
2023/10/30 11:29:23;;;;;;;1.43;1.33;;;18.20;99.90;;;;;;5032403;28;20442;-83
2023/10/30 11:32:00;;;;;;;0.70;0.70;;;18.20;99.90;;;;;;5032177;28;20457;-84
2023/10/30 11:34:35;;;;;;;0.70;0.70;;;18.30;99.90;;;;;;5040212;28;20420;-84
2023/10/30 11:37:09;;;;;;;1.13;1.13;;;18.30;99.90;;;;;;5027566;28;20705;-83
2023/10/30 11:39:38;;;;;;;1.53;1.47;;;18.40;99.90;;;;;;5036147;28;20405;-81
2023/10/30 11:42:34;;;;;;;0.80;0.80;;;18.30;99.90;;;;;;5025293;28;20432;-85
2023/10/30 11:45:30;;;;;;;2.13;2.03;;;18.40;99.90;;;;;;5013277;28;20744;-82
2023/10/30 11:47:59;;;;;;;0.70;0.70;;;18.40;99.90;;;;;;5019893;28;20473;-83
2023/10/30 11:50:28;;;;;;;0.70;0.70;;;18.60;99.90;;;;;;5018863;28;20558;-83
2023/10/30 11:52:59;;;;;;;0.70;0.70;;;18.50;99.90;;;;;;5030328;28;20415;-83
2023/10/30 11:55:29;;;;;;;1.13;1.10;;;18.50;99.90;;;;;;5043151;28;20462;-84
2023/10/30 11:57:58;;;;;;;0.70;0.70;;;18.60;99.90;;;;;;5034230;28;20441;-84
2023/10/30 12:00:25;;;;;;;0.80;0.80;;;18.50;99.90;;;;;;5021742;28;20428;-84
2023/10/30 12:02:54;;;;;;;1.73;1.30;;;18.50;99.90;;;;;;5034363;28;20719;-83
2023/10/30 12:05:21;;;;;;;0.80;0.80;;;18.60;99.90;;;;;;5030227;28;20454;-83
2023/10/30 12:07:49;;;;;;;0.70;0.70;;;18.50;99.90;;;;;;5025062;28;20518;-83
2023/10/30 12:10:18;;;;;;;1.60;1.50;;;18.60;99.90;;;;;;5040029;28;20478;-83
2023/10/30 12:12:46;;;;;;;0.70;0.70;;;18.50;99.90;;;;;;5037392;28;20408;-85
2023/10/30 12:15:14;;;;;;;0.70;0.70;;;18.60;99.90;;;;;;5035887;28;20429;-83
2023/10/30 12:17:41;;;;;;;1.00;1.00;;;18.80;99.90;;;;;;5037833;28;20455;-83
2023/10/30 12:20:09;;;;;;;1.53;1.43;;;18.60;99.90;;;;;;5025535;28;20433;-82
2023/10/30 12:22:41;;;;;;;0.70;0.70;;;18.70;99.90;;;;;;5039274;28;20501;-83
2023/10/30 12:25:13;;;;;;;1.53;1.53;;;18.60;99.90;;;;;;5036076;28;20417;-81
2023/10/30 12:27:41;;;;;;;2.53;2.40;;;18.50;99.90;;;;;;5020076;28;20464;-82
2023/10/30 12:30:17;;;;;;;0.70;0.70;;;18.50;99.90;;;;;;5030161;28;20435;-83
2023/10/30 12:32:55;;;;;;;0.70;0.70;;;18.40;99.90;;;;;;5019938;28;20483;-83
2023/10/30 12:35:22;;;;;;;0.73;0.73;;;18.40;99.90;;;;;;5030394;28;20482;-83
2023/10/30 12:37:50;;;;;;;0.70;0.70;;;18.40;99.90;;;;;;5025191;28;20581;-82
2023/10/30 12:40:18;;;;;;;0.60;0.60;;;18.50;99.90;;;;;;5030279;28;21073;-82
2023/10/30 12:42:46;;;;;;;0.60;0.60;;;18.60;99.90;;;;;;5035882;28;20500;-83
2023/10/30 12:45:20;;;;;;;1.00;1.00;;;18.50;99.90;;;;;;5042078;28;20897;-84
2023/10/30 12:47:53;;;;;;;0.60;0.60;;;18.60;99.90;;;;;;5035472;28;20431;-87
2023/10/30 12:50:22;;;;;;;0.70;0.70;;;18.70;99.90;;;;;;5035122;28;20451;-82
2023/10/30 12:52:49;;;;;;;0.60;0.60;;;18.60;99.90;;;;;;5031438;28;20693;-85